createdAt,value
2018-10-05T00:01:15.463Z,13.80
2018-10-05T00:03:50.392Z,13.70
2018-10-05T00:06:25.216Z,13.70
2018-10-05T00:09:00.248Z,13.70
2018-10-05T00:11:35.020Z,13.70
2018-10-05T00:14:10.185Z,13.80
2018-10-05T00:16:45.064Z,13.70
2018-10-05T00:19:19.939Z,13.70
2018-10-05T00:21:54.677Z,13.70
2018-10-05T00:24:29.508Z,13.80
2018-10-05T00:27:04.634Z,13.80
2018-10-05T00:29:39.585Z,13.80
2018-10-05T00:32:14.593Z,13.80
2018-10-05T00:34:49.410Z,13.80
2018-10-05T00:37:24.340Z,13.80
2018-10-05T00:39:59.143Z,13.90
2018-10-05T00:42:34.044Z,13.90
2018-10-05T00:45:08.810Z,13.90
2018-10-05T00:47:43.811Z,13.90
2018-10-05T00:50:18.753Z,13.90
2018-10-05T00:52:53.678Z,13.90
2018-10-05T00:55:28.686Z,13.90
2018-10-05T00:58:03.569Z,13.90
2018-10-05T01:00:38.440Z,13.90
2018-10-05T01:03:13.373Z,13.90
2018-10-05T01:05:48.299Z,13.90
2018-10-05T01:08:23.192Z,14.00
2018-10-05T01:10:58.152Z,14.00
2018-10-05T01:13:33.141Z,14.00
2018-10-05T01:16:07.937Z,13.90
2018-10-05T01:18:42.828Z,13.90
2018-10-05T01:21:17.593Z,14.00
2018-10-05T01:23:52.364Z,13.90
2018-10-05T01:26:27.209Z,13.90
2018-10-05T01:29:02.394Z,13.90
2018-10-05T01:31:37.469Z,13.90
2018-10-05T01:34:12.723Z,13.90
2018-10-05T01:36:48.094Z,13.80
2018-10-05T01:39:23.349Z,13.80
2018-10-05T01:41:58.551Z,13.70
2018-10-05T01:44:33.706Z,13.70
2018-10-05T01:47:09.060Z,13.80
2018-10-05T01:49:44.318Z,13.80
2018-10-05T01:52:19.682Z,13.80
2018-10-05T01:54:54.725Z,13.80
2018-10-05T01:57:30.154Z,13.80
2018-10-05T02:00:05.403Z,13.80
2018-10-05T02:02:40.989Z,13.80
2018-10-05T02:05:16.215Z,13.80
2018-10-05T02:07:51.604Z,13.90
2018-10-05T02:10:26.830Z,13.90
2018-10-05T02:13:02.208Z,13.90
2018-10-05T02:15:37.610Z,13.90
2018-10-05T02:18:13.267Z,13.90
2018-10-05T02:20:48.654Z,13.80
2018-10-05T02:23:23.945Z,13.80
2018-10-05T02:25:59.256Z,13.80
2018-10-05T02:28:34.484Z,13.80
2018-10-05T02:31:09.386Z,13.80
2018-10-05T02:33:44.510Z,13.80
2018-10-05T02:36:19.756Z,13.80
2018-10-05T02:38:55.330Z,13.80
2018-10-05T02:41:30.495Z,13.80
2018-10-05T02:44:05.915Z,13.70
2018-10-05T02:46:41.071Z,13.70
2018-10-05T02:49:16.560Z,13.70
2018-10-05T02:51:51.761Z,13.70
2018-10-05T02:54:27.136Z,13.60
2018-10-05T02:57:02.424Z,13.60
2018-10-05T02:59:37.617Z,13.50
2018-10-05T03:02:24.430Z,13.60
2018-10-05T03:05:00.162Z,13.60
2018-10-05T03:07:35.108Z,13.70
2018-10-05T03:10:10.031Z,13.70
2018-10-05T03:12:44.792Z,13.70
2018-10-05T03:15:19.600Z,13.70
2018-10-05T03:17:54.407Z,13.80
2018-10-05T03:20:29.150Z,13.80
2018-10-05T03:23:04.001Z,13.70
2018-10-05T03:25:39.052Z,13.70
2018-10-05T03:28:13.761Z,13.80
2018-10-05T03:30:48.651Z,13.80
2018-10-05T03:33:23.523Z,13.80
2018-10-05T03:35:58.528Z,13.80
2018-10-05T03:38:33.292Z,13.80
2018-10-05T03:41:08.210Z,13.80
2018-10-05T03:43:43.113Z,13.70
2018-10-05T03:46:17.976Z,13.80
2018-10-05T03:48:53.615Z,13.80
2018-10-05T03:51:29.338Z,13.80
2018-10-05T03:54:05.186Z,13.80
2018-10-05T03:56:40.412Z,13.80
2018-10-05T03:59:15.212Z,13.70
2018-10-05T04:01:50.027Z,13.70
2018-10-05T04:04:24.877Z,13.70
2018-10-05T04:06:59.947Z,13.60
2018-10-05T04:09:34.987Z,13.60
2018-10-05T04:12:09.837Z,13.60
2018-10-05T04:14:44.579Z,13.60
2018-10-05T04:17:19.499Z,13.50
2018-10-05T04:19:54.236Z,13.50
2018-10-05T04:22:30.540Z,13.50
2018-10-05T04:25:05.467Z,13.50
2018-10-05T04:27:40.379Z,13.50
2018-10-05T04:30:15.173Z,13.50
2018-10-05T04:32:50.041Z,13.40
2018-10-05T04:35:24.922Z,13.40
2018-10-05T04:37:59.807Z,13.40
2018-10-05T04:40:34.676Z,13.40
2018-10-05T04:43:09.734Z,13.40
2018-10-05T04:45:44.703Z,13.40
2018-10-05T04:48:19.570Z,13.50
2018-10-05T04:50:54.413Z,13.40
2018-10-05T04:53:30.911Z,13.50
2018-10-05T04:56:05.795Z,13.40
2018-10-05T04:58:40.709Z,13.40
2018-10-05T05:01:15.506Z,13.40
2018-10-05T05:03:50.365Z,13.40
2018-10-05T05:06:25.296Z,13.40
2018-10-05T05:09:00.061Z,13.40
2018-10-05T05:11:35.043Z,13.40
2018-10-05T05:14:09.896Z,13.40
2018-10-05T05:16:44.772Z,13.30
2018-10-05T05:19:19.748Z,13.30
2018-10-05T05:21:54.744Z,13.30
2018-10-05T05:24:30.639Z,13.40
2018-10-05T05:27:05.459Z,13.40
2018-10-05T05:29:40.310Z,13.40
2018-10-05T05:32:15.284Z,13.40
2018-10-05T05:34:50.249Z,13.40
2018-10-05T05:37:25.662Z,13.50
2018-10-05T05:40:00.655Z,13.50
2018-10-05T05:42:35.359Z,13.50
2018-10-05T05:45:10.327Z,13.50
2018-10-05T05:47:45.042Z,13.60
2018-10-05T05:50:20.025Z,13.60
2018-10-05T05:52:54.809Z,13.60
2018-10-05T05:55:29.624Z,13.60
2018-10-05T05:58:04.483Z,13.70
2018-10-05T06:00:39.431Z,13.70
2018-10-05T06:03:14.484Z,13.70
2018-10-05T06:05:49.453Z,13.70
2018-10-05T06:08:24.285Z,13.70
2018-10-05T06:10:59.165Z,13.70
2018-10-05T06:13:33.905Z,13.70
2018-10-05T06:16:09.051Z,13.70
2018-10-05T06:18:43.792Z,13.70
2018-10-05T06:21:18.633Z,13.70
2018-10-05T06:23:53.459Z,13.70
2018-10-05T06:26:28.279Z,13.70
2018-10-05T06:29:03.115Z,13.70
2018-10-05T06:31:37.951Z,13.70
2018-10-05T06:34:12.808Z,13.70
2018-10-05T06:36:47.741Z,13.80
2018-10-05T06:39:22.578Z,13.70
2018-10-05T06:41:57.627Z,13.70
2018-10-05T06:44:32.380Z,13.60
2018-10-05T06:47:07.268Z,13.60
2018-10-05T06:53:08.549Z,13.70
2018-10-05T06:55:44.101Z,13.70
2018-10-05T06:58:19.465Z,13.70
2018-10-05T07:00:54.833Z,13.70
2018-10-05T07:03:30.154Z,13.70
2018-10-05T07:06:05.501Z,13.80
2018-10-05T07:08:40.934Z,13.80
2018-10-05T07:11:16.575Z,13.80
2018-10-05T07:13:52.012Z,13.80
2018-10-05T07:16:27.464Z,13.80
2018-10-05T07:19:02.823Z,13.90
2018-10-05T07:21:38.273Z,13.90
2018-10-05T07:24:13.798Z,14.00
2018-10-05T07:26:49.560Z,14.00
2018-10-05T07:29:25.094Z,13.90
2018-10-05T07:32:00.476Z,13.90
2018-10-05T07:34:35.985Z,13.90
2018-10-05T07:37:11.413Z,13.90
2018-10-05T07:39:46.851Z,13.90
2018-10-05T07:42:22.213Z,13.90
2018-10-05T07:44:57.493Z,13.90
2018-10-05T07:47:33.099Z,13.90
2018-10-05T07:50:08.841Z,13.90
2018-10-05T07:52:44.185Z,13.90
2018-10-05T07:55:19.634Z,14.00
2018-10-05T07:57:55.031Z,14.00
2018-10-05T08:00:30.334Z,14.10
2018-10-05T08:03:05.855Z,14.10
2018-10-05T08:05:41.124Z,14.10
2018-10-05T08:08:16.443Z,14.10
2018-10-05T08:10:52.224Z,14.20
2018-10-05T08:13:27.831Z,14.20
2018-10-05T08:16:03.341Z,14.20
2018-10-05T08:18:38.696Z,14.30
2018-10-05T08:21:14.113Z,14.30
2018-10-05T08:23:49.503Z,14.30
2018-10-05T08:26:24.912Z,14.40
2018-10-05T08:29:00.198Z,14.50
2018-10-05T08:31:35.475Z,14.60
2018-10-05T08:34:10.841Z,14.70
2018-10-05T08:36:46.011Z,14.80
2018-10-05T08:39:21.414Z,14.80
2018-10-05T08:41:56.613Z,14.90
2018-10-05T08:44:31.921Z,14.90
2018-10-05T08:47:07.216Z,15.00
2018-10-05T08:49:42.773Z,15.00
2018-10-05T08:52:18.221Z,15.10
2018-10-05T08:54:53.911Z,15.20
2018-10-05T08:57:29.383Z,15.20
2018-10-05T09:00:05.054Z,15.20
2018-10-05T09:02:40.588Z,15.30
2018-10-05T09:05:16.262Z,15.30
2018-10-05T09:07:51.794Z,15.30
2018-10-05T09:10:27.409Z,15.30
2018-10-05T09:13:03.144Z,15.40
2018-10-05T09:15:38.731Z,15.50
2018-10-05T09:18:14.247Z,15.60
2018-10-05T09:20:49.771Z,15.70
2018-10-05T09:23:25.474Z,15.70
2018-10-05T09:26:01.191Z,15.80
2018-10-05T09:28:36.483Z,15.80
2018-10-05T09:31:12.087Z,15.80
2018-10-05T09:33:47.784Z,15.90
2018-10-05T09:36:23.180Z,16.00
2018-10-05T09:38:58.821Z,16.00
2018-10-05T09:41:34.191Z,16.00
2018-10-05T09:44:09.725Z,16.10
2018-10-05T09:46:45.203Z,16.10
2018-10-05T09:49:20.513Z,16.20
2018-10-05T09:51:56.103Z,16.20
2018-10-05T09:54:31.733Z,16.30
2018-10-05T09:57:07.331Z,16.30
2018-10-05T09:59:42.847Z,16.40
2018-10-05T10:02:23.433Z,16.40
2018-10-05T10:04:58.723Z,16.50
2018-10-05T10:07:34.272Z,16.50
2018-10-05T10:10:09.903Z,16.60
2018-10-05T10:12:45.444Z,16.60
2018-10-05T10:15:21.133Z,16.70
2018-10-05T10:17:56.564Z,16.70
2018-10-05T10:20:32.062Z,16.80
2018-10-05T10:23:07.321Z,16.90
2018-10-05T10:25:42.761Z,17.00
2018-10-05T10:28:18.371Z,17.00
2018-10-05T10:30:53.765Z,17.00
2018-10-05T10:33:29.025Z,17.10
2018-10-05T10:36:04.690Z,17.30
2018-10-05T10:38:40.231Z,17.40
2018-10-05T10:41:15.764Z,17.40
2018-10-05T10:43:51.994Z,17.50
2018-10-05T10:46:27.752Z,17.40
2018-10-05T10:49:03.300Z,17.60
2018-10-05T10:51:38.636Z,17.70
2018-10-05T10:54:14.053Z,17.70
2018-10-05T10:56:51.011Z,17.80
2018-10-05T10:59:26.446Z,17.80
2018-10-05T11:02:01.868Z,17.90
2018-10-05T11:04:37.532Z,17.90
2018-10-05T11:07:14.263Z,18.00
2018-10-05T11:09:49.945Z,18.00
2018-10-05T11:12:25.611Z,18.10
2018-10-05T11:15:01.162Z,18.20
2018-10-05T11:17:36.511Z,18.20
2018-10-05T11:20:11.991Z,18.20
2018-10-05T11:22:47.499Z,18.30
2018-10-05T11:25:23.759Z,18.30
2018-10-05T11:27:59.268Z,18.40
2018-10-05T11:30:34.765Z,18.50
2018-10-05T11:33:10.455Z,18.50
2018-10-05T11:35:45.684Z,18.50
2018-10-05T11:38:21.508Z,18.40
2018-10-05T11:40:56.918Z,18.60
2018-10-05T11:43:32.250Z,18.70
2018-10-05T11:46:08.017Z,18.80
2018-10-05T11:48:43.728Z,18.90
2018-10-05T11:51:19.160Z,18.90
2018-10-05T11:53:54.840Z,18.90
2018-10-05T11:56:30.385Z,18.90
2018-10-05T11:59:05.733Z,19.10
2018-10-05T12:01:41.094Z,19.10
2018-10-05T12:04:16.505Z,19.10
2018-10-05T12:06:51.844Z,19.10
2018-10-05T12:09:27.252Z,19.00
2018-10-05T12:12:02.851Z,19.10
2018-10-05T12:14:38.191Z,19.20
2018-10-05T12:17:13.401Z,19.10
2018-10-05T12:19:48.898Z,19.20
2018-10-05T12:22:24.527Z,19.20
2018-10-05T12:25:02.890Z,19.30
2018-10-05T12:27:38.134Z,19.30
2018-10-05T12:30:13.875Z,19.40
2018-10-05T12:32:49.291Z,19.50
2018-10-05T12:35:24.883Z,19.60
2018-10-05T12:38:00.312Z,19.80
2018-10-05T12:40:35.721Z,19.90
2018-10-05T12:43:11.344Z,20.90
2018-10-05T12:45:46.772Z,21.60
2018-10-05T12:48:22.023Z,22.00
2018-10-05T12:50:57.642Z,23.10
2018-10-05T12:53:33.003Z,23.50
2018-10-05T12:56:08.657Z,23.10
2018-10-05T12:58:44.289Z,22.20
2018-10-05T13:01:19.981Z,22.50
2018-10-05T13:03:55.464Z,23.10
2018-10-05T13:06:31.144Z,22.70
2018-10-05T13:09:08.190Z,22.80
2018-10-05T13:11:43.644Z,23.30
2018-10-05T13:14:19.101Z,23.50
2018-10-05T13:16:54.610Z,23.20
2018-10-05T13:19:30.016Z,22.80
2018-10-05T13:22:05.461Z,22.30
2018-10-05T13:24:40.904Z,22.60
2018-10-05T13:27:16.326Z,23.10
2018-10-05T13:29:51.541Z,23.70
2018-10-05T13:32:26.904Z,23.50
2018-10-05T13:35:02.496Z,23.90
2018-10-05T13:37:37.902Z,23.90
2018-10-05T13:40:13.554Z,24.10
2018-10-05T13:42:48.996Z,23.70
2018-10-05T13:45:24.212Z,23.50
2018-10-05T13:47:59.783Z,23.10
2018-10-05T13:50:35.123Z,22.30
2018-10-05T13:53:10.563Z,22.10
2018-10-05T13:55:45.820Z,22.30
2018-10-05T13:58:21.142Z,22.10
2018-10-05T14:00:56.516Z,21.40
2018-10-05T14:03:31.701Z,21.20
2018-10-05T14:06:06.951Z,21.10
2018-10-05T14:08:42.378Z,20.90
2018-10-05T14:11:17.732Z,20.90
2018-10-05T14:13:53.068Z,20.60
2018-10-05T14:16:28.678Z,20.30
2018-10-05T14:19:04.277Z,20.20
2018-10-05T14:21:39.862Z,20.10
2018-10-05T14:24:15.445Z,20.10
2018-10-05T14:26:51.139Z,19.90
2018-10-05T14:29:26.570Z,19.80
2018-10-05T14:32:01.948Z,19.90
2018-10-05T14:34:37.456Z,19.90
2018-10-05T14:37:12.923Z,19.70
2018-10-05T14:39:48.244Z,19.60
2018-10-05T14:42:23.651Z,19.60
2018-10-05T14:44:59.142Z,19.60
2018-10-05T14:47:34.403Z,19.50
2018-10-05T14:50:10.011Z,19.40
2018-10-05T14:52:45.395Z,19.40
2018-10-05T14:55:23.980Z,19.30
2018-10-05T14:57:59.518Z,19.30
2018-10-05T15:00:34.997Z,19.30
2018-10-05T15:03:10.303Z,19.20
2018-10-05T15:05:45.872Z,19.10
2018-10-05T15:08:21.513Z,19.10
2018-10-05T15:10:57.050Z,19.10
2018-10-05T15:13:32.513Z,19.20
2018-10-05T15:16:08.221Z,19.10
2018-10-05T15:18:43.683Z,19.00
2018-10-05T15:21:19.207Z,19.00
2018-10-05T15:23:54.592Z,19.00
2018-10-05T15:26:30.118Z,18.90
2018-10-05T15:29:05.371Z,18.80
2018-10-05T15:31:41.330Z,18.70
2018-10-05T15:34:16.663Z,18.60
2018-10-05T15:36:52.319Z,18.50
2018-10-05T15:39:27.661Z,18.40
2018-10-05T15:42:03.123Z,18.30
2018-10-05T15:44:38.563Z,18.20
2018-10-05T15:47:15.000Z,18.20
2018-10-05T15:49:50.373Z,18.00
2018-10-05T15:52:25.830Z,17.90
2018-10-05T15:55:01.243Z,17.80
2018-10-05T15:57:36.620Z,17.60
2018-10-05T16:00:12.115Z,17.50
2018-10-05T16:02:47.293Z,17.40
2018-10-05T16:05:22.907Z,17.30
2018-10-05T16:07:58.101Z,17.10
2018-10-05T16:10:33.521Z,17.00
2018-10-05T16:13:08.973Z,16.80
2018-10-05T16:15:44.519Z,16.70
2018-10-05T16:18:20.312Z,16.60
2018-10-05T16:20:55.681Z,16.40
2018-10-05T16:23:31.045Z,16.30
2018-10-05T16:26:06.519Z,16.10
2018-10-05T16:28:42.042Z,16.10
2018-10-05T16:31:17.475Z,16.00
2018-10-05T16:33:52.852Z,15.80
2018-10-05T16:36:28.199Z,15.80
2018-10-05T16:39:03.764Z,15.70
2018-10-05T16:41:39.243Z,15.60
2018-10-05T16:44:14.736Z,15.50
2018-10-05T16:46:50.341Z,15.40
2018-10-05T16:49:26.311Z,15.30
2018-10-05T16:52:01.785Z,15.20
2018-10-05T16:54:37.500Z,15.10
2018-10-05T16:57:13.105Z,15.00
2018-10-05T16:59:48.498Z,15.00
2018-10-05T17:02:23.965Z,14.90
2018-10-05T17:04:59.505Z,14.90
2018-10-05T17:07:34.945Z,14.80
2018-10-05T17:10:10.211Z,14.60
2018-10-05T17:12:45.602Z,14.60
2018-10-05T17:15:20.942Z,14.50
2018-10-05T17:17:56.391Z,14.50
2018-10-05T17:20:31.745Z,14.50
2018-10-05T17:23:07.215Z,14.40
2018-10-05T17:25:42.535Z,14.40
2018-10-05T17:28:17.841Z,14.20
2018-10-05T17:30:53.235Z,14.10
2018-10-05T17:33:28.846Z,14.00
2018-10-05T17:36:04.187Z,13.90
2018-10-05T17:38:39.763Z,13.90
2018-10-05T17:41:15.281Z,13.90
2018-10-05T17:43:50.785Z,13.80
2018-10-05T17:46:26.315Z,13.80
2018-10-05T17:49:01.894Z,13.70
2018-10-05T17:51:37.422Z,13.50
2018-10-05T17:54:13.125Z,13.50
2018-10-05T17:56:48.692Z,13.40
2018-10-05T17:59:24.176Z,13.40
2018-10-05T18:01:59.571Z,13.40
2018-10-05T18:04:34.842Z,13.30
2018-10-05T18:07:10.191Z,13.30
2018-10-05T18:09:45.552Z,13.20
2018-10-05T18:12:20.913Z,13.20
2018-10-05T18:14:56.308Z,13.20
2018-10-05T18:17:31.852Z,13.10
2018-10-05T18:20:07.569Z,13.10
2018-10-05T18:22:43.047Z,13.10
2018-10-05T18:25:18.306Z,13.00
2018-10-05T18:27:53.642Z,12.90
2018-10-05T18:30:29.183Z,12.90
2018-10-05T18:33:04.575Z,12.90
2018-10-05T18:35:40.172Z,12.80
2018-10-05T18:38:15.656Z,12.80
2018-10-05T18:40:51.252Z,12.80
2018-10-05T18:43:26.673Z,12.70
2018-10-05T18:46:02.133Z,12.70
2018-10-05T18:48:37.546Z,12.60
2018-10-05T18:51:13.102Z,12.60
2018-10-05T18:53:48.855Z,12.60
2018-10-05T18:56:35.224Z,12.50
2018-10-05T18:59:10.582Z,12.50
2018-10-05T19:01:46.257Z,12.40
2018-10-05T19:04:21.706Z,12.40
2018-10-05T19:06:56.942Z,12.40
2018-10-05T19:09:32.643Z,12.40
2018-10-05T19:12:08.506Z,12.30
2018-10-05T19:14:43.864Z,12.30
2018-10-05T19:17:19.486Z,12.20
2018-10-05T19:19:54.942Z,12.30
2018-10-05T19:22:30.444Z,12.20
2018-10-05T19:25:06.073Z,12.20
2018-10-05T19:27:41.585Z,12.20
2018-10-05T19:30:17.054Z,12.20
2018-10-05T19:32:52.467Z,12.10
2018-10-05T19:35:27.911Z,12.10
2018-10-05T19:38:03.491Z,12.00
2018-10-05T19:40:38.921Z,12.00
2018-10-05T19:43:14.462Z,11.90
2018-10-05T19:45:49.914Z,11.90
2018-10-05T19:48:25.149Z,11.80
2018-10-05T19:51:00.391Z,11.80
2018-10-05T19:53:35.893Z,11.70
2018-10-05T19:56:11.381Z,11.80
2018-10-05T19:58:46.923Z,11.80
2018-10-05T20:01:22.941Z,11.70
2018-10-05T20:03:58.229Z,11.60
2018-10-05T20:06:33.594Z,11.60
2018-10-05T20:09:09.354Z,11.60
2018-10-05T20:11:45.585Z,11.60
2018-10-05T20:14:20.945Z,11.60
2018-10-05T20:16:56.591Z,11.60
2018-10-05T20:19:32.346Z,11.50
2018-10-05T20:22:08.724Z,11.60
2018-10-05T20:24:44.283Z,11.70
2018-10-05T20:27:19.824Z,11.70
2018-10-05T20:29:55.107Z,11.80
2018-10-05T20:32:30.352Z,11.80
2018-10-05T20:35:05.621Z,11.70
2018-10-05T20:37:41.007Z,11.70
2018-10-05T20:40:16.125Z,11.70
2018-10-05T20:42:51.345Z,11.80
2018-10-05T20:45:26.663Z,11.90
2018-10-05T20:48:01.896Z,12.00
2018-10-05T20:50:37.201Z,12.10
2018-10-05T20:53:12.711Z,12.00
2018-10-05T20:55:48.240Z,11.90
2018-10-05T20:58:23.462Z,11.80
2018-10-05T21:00:58.918Z,11.80
2018-10-05T21:03:34.362Z,11.70
2018-10-05T21:06:09.934Z,11.70
2018-10-05T21:08:45.532Z,11.60
2018-10-05T21:11:21.021Z,11.50
2018-10-05T21:13:56.397Z,11.40
2018-10-05T21:16:31.912Z,11.40
2018-10-05T21:19:07.803Z,11.30
2018-10-05T21:21:43.112Z,11.30
2018-10-05T21:24:18.412Z,11.20
2018-10-05T21:26:53.681Z,11.10
2018-10-05T21:29:29.029Z,11.10
2018-10-05T21:32:04.394Z,11.20
2018-10-05T21:34:39.899Z,11.20
2018-10-05T21:37:15.574Z,11.20
2018-10-05T21:39:50.788Z,11.10
2018-10-05T21:42:26.176Z,11.20
2018-10-05T21:45:01.686Z,11.20
2018-10-05T21:47:36.803Z,11.10
2018-10-05T21:50:12.141Z,11.10
2018-10-05T21:52:47.645Z,11.10
2018-10-05T21:55:22.938Z,11.00
2018-10-05T21:57:58.605Z,11.00
2018-10-05T22:00:40.405Z,11.00
2018-10-05T22:03:15.803Z,11.00
2018-10-05T22:05:51.276Z,10.90
2018-10-05T22:08:26.506Z,10.90
2018-10-05T22:11:02.290Z,10.90
2018-10-05T22:13:37.901Z,10.80
2018-10-05T22:16:13.595Z,10.80
2018-10-05T22:18:48.905Z,10.80
2018-10-05T22:21:24.254Z,10.80
2018-10-05T22:23:59.798Z,10.70
2018-10-05T22:26:35.122Z,10.70
2018-10-05T22:29:10.504Z,10.60
2018-10-05T22:31:45.827Z,10.60
2018-10-05T22:34:21.261Z,10.60
2018-10-05T22:36:56.605Z,10.60
2018-10-05T22:39:31.936Z,10.60
2018-10-05T22:42:07.394Z,10.60
2018-10-05T22:44:42.936Z,10.60
2018-10-05T22:47:18.351Z,10.50
2018-10-05T22:49:53.742Z,10.50
2018-10-05T22:52:29.384Z,10.50
2018-10-05T22:55:05.034Z,10.40
2018-10-05T22:57:40.281Z,10.40
2018-10-05T23:00:15.805Z,10.40
2018-10-05T23:02:51.164Z,10.40
2018-10-05T23:05:26.564Z,10.40
2018-10-05T23:08:02.147Z,10.40
2018-10-05T23:10:37.564Z,10.30
2018-10-05T23:13:12.804Z,10.30
2018-10-05T23:15:48.363Z,10.30
2018-10-05T23:18:23.771Z,10.30
2018-10-05T23:20:59.242Z,10.30
2018-10-05T23:23:34.564Z,10.30
2018-10-05T23:26:10.286Z,10.40
2018-10-05T23:28:45.815Z,10.30
2018-10-05T23:31:21.094Z,10.40
2018-10-05T23:33:56.242Z,10.30
2018-10-05T23:36:31.598Z,10.30
2018-10-05T23:39:09.411Z,10.30
2018-10-05T23:41:44.866Z,10.20
2018-10-05T23:44:20.494Z,10.30
2018-10-05T23:46:55.953Z,10.30
2018-10-05T23:49:31.514Z,10.30
2018-10-05T23:52:53.011Z,10.30
2018-10-05T23:55:28.571Z,10.30
2018-10-05T23:58:03.924Z,10.30
